sensor_id;sensor_type;location;lat;lon;timestamp;P1;durP1;ratioP1;P2;durP2;ratioP2
46110;SDS011;31849;55.992;37.252;2023-09-19T00:01:00;15.80;;;8.30;;
46110;SDS011;31849;55.992;37.252;2023-09-19T00:06:04;11.13;;;8.20;;
46110;SDS011;31849;55.992;37.252;2023-09-19T00:11:10;15.50;;;9.13;;
46110;SDS011;31849;55.992;37.252;2023-09-19T00:16:15;14.32;;;8.15;;
46110;SDS011;31849;55.992;37.252;2023-09-19T00:21:20;14.18;;;10.10;;
46110;SDS011;31849;55.992;37.252;2023-09-19T00:26:25;14.00;;;9.45;;
46110;SDS011;31849;55.992;37.252;2023-09-19T00:31:32;11.27;;;8.52;;
46110;SDS011;31849;55.992;37.252;2023-09-19T00:36:36;11.18;;;8.02;;
46110;SDS011;31849;55.992;37.252;2023-09-19T00:41:41;13.95;;;8.32;;
46110;SDS011;31849;55.992;37.252;2023-09-19T00:46:46;12.10;;;8.80;;
46110;SDS011;31849;55.992;37.252;2023-09-19T00:51:52;12.55;;;8.68;;
46110;SDS011;31849;55.992;37.252;2023-09-19T00:56:57;14.10;;;8.87;;
46110;SDS011;31849;55.992;37.252;2023-09-19T01:02:01;13.50;;;9.07;;
46110;SDS011;31849;55.992;37.252;2023-09-19T01:07:05;15.85;;;10.43;;
46110;SDS011;31849;55.992;37.252;2023-09-19T01:12:11;11.15;;;8.32;;
46110;SDS011;31849;55.992;37.252;2023-09-19T01:17:23;13.13;;;9.68;;
46110;SDS011;31849;55.992;37.252;2023-09-19T01:22:32;15.63;;;9.45;;
46110;SDS011;31849;55.992;37.252;2023-09-19T01:27:59;12.95;;;9.70;;
46110;SDS011;31849;55.992;37.252;2023-09-19T01:33:19;12.07;;;8.98;;
46110;SDS011;31849;55.992;37.252;2023-09-19T01:38:23;13.15;;;9.30;;
46110;SDS011;31849;55.992;37.252;2023-09-19T01:43:27;13.63;;;10.25;;
46110;SDS011;31849;55.992;37.252;2023-09-19T01:48:38;15.30;;;10.32;;
46110;SDS011;31849;55.992;37.252;2023-09-19T01:53:50;17.15;;;10.65;;
46110;SDS011;31849;55.992;37.252;2023-09-19T01:58:59;13.73;;;9.70;;
46110;SDS011;31849;55.992;37.252;2023-09-19T02:04:10;13.60;;;9.57;;
46110;SDS011;31849;55.992;37.252;2023-09-19T02:09:14;16.55;;;10.80;;
46110;SDS011;31849;55.992;37.252;2023-09-19T02:14:18;12.13;;;9.80;;
46110;SDS011;31849;55.992;37.252;2023-09-19T02:19:23;17.53;;;10.60;;
46110;SDS011;31849;55.992;37.252;2023-09-19T02:24:26;18.88;;;10.57;;
46110;SDS011;31849;55.992;37.252;2023-09-19T02:29:30;17.48;;;11.52;;
46110;SDS011;31849;55.992;37.252;2023-09-19T02:34:35;23.65;;;11.48;;
46110;SDS011;31849;55.992;37.252;2023-09-19T02:39:41;19.08;;;11.40;;
46110;SDS011;31849;55.992;37.252;2023-09-19T02:44:44;15.63;;;11.48;;
46110;SDS011;31849;55.992;37.252;2023-09-19T02:49:50;15.40;;;11.03;;
46110;SDS011;31849;55.992;37.252;2023-09-19T02:54:53;17.80;;;11.70;;
46110;SDS011;31849;55.992;37.252;2023-09-19T02:59:57;13.85;;;10.25;;
46110;SDS011;31849;55.992;37.252;2023-09-19T03:05:04;18.33;;;11.63;;
46110;SDS011;31849;55.992;37.252;2023-09-19T03:10:09;20.23;;;11.70;;
46110;SDS011;31849;55.992;37.252;2023-09-19T03:15:13;16.75;;;11.75;;
46110;SDS011;31849;55.992;37.252;2023-09-19T03:20:19;18.58;;;12.82;;
46110;SDS011;31849;55.992;37.252;2023-09-19T03:25:23;15.57;;;11.30;;
46110;SDS011;31849;55.992;37.252;2023-09-19T03:30:26;19.00;;;12.15;;
46110;SDS011;31849;55.992;37.252;2023-09-19T03:35:32;17.58;;;11.65;;
46110;SDS011;31849;55.992;37.252;2023-09-19T03:40:36;18.15;;;12.55;;
46110;SDS011;31849;55.992;37.252;2023-09-19T03:45:40;21.80;;;13.20;;
46110;SDS011;31849;55.992;37.252;2023-09-19T03:50:45;17.97;;;11.93;;
46110;SDS011;31849;55.992;37.252;2023-09-19T03:55:49;17.45;;;12.52;;
46110;SDS011;31849;55.992;37.252;2023-09-19T04:00:54;18.80;;;11.40;;
46110;SDS011;31849;55.992;37.252;2023-09-19T04:06:01;18.75;;;12.05;;
46110;SDS011;31849;55.992;37.252;2023-09-19T04:11:05;14.80;;;11.55;;
46110;SDS011;31849;55.992;37.252;2023-09-19T04:16:08;16.63;;;11.10;;
46110;SDS011;31849;55.992;37.252;2023-09-19T04:21:13;16.35;;;12.05;;
46110;SDS011;31849;55.992;37.252;2023-09-19T04:26:17;15.32;;;11.35;;
46110;SDS011;31849;55.992;37.252;2023-09-19T04:31:21;16.77;;;12.07;;
46110;SDS011;31849;55.992;37.252;2023-09-19T04:36:26;16.98;;;12.75;;
46110;SDS011;31849;55.992;37.252;2023-09-19T04:41:37;17.67;;;12.00;;
46110;SDS011;31849;55.992;37.252;2023-09-19T04:46:43;17.25;;;11.38;;
46110;SDS011;31849;55.992;37.252;2023-09-19T04:51:49;14.73;;;11.43;;
46110;SDS011;31849;55.992;37.252;2023-09-19T04:56:53;15.93;;;11.63;;
46110;SDS011;31849;55.992;37.252;2023-09-19T05:01:56;16.35;;;11.50;;
46110;SDS011;31849;55.992;37.252;2023-09-19T05:07:01;19.33;;;12.15;;
46110;SDS011;31849;55.992;37.252;2023-09-19T05:12:06;16.17;;;12.15;;
46110;SDS011;31849;55.992;37.252;2023-09-19T05:17:13;14.23;;;12.05;;
46110;SDS011;31849;55.992;37.252;2023-09-19T05:22:20;16.17;;;11.65;;
46110;SDS011;31849;55.992;37.252;2023-09-19T05:27:26;17.23;;;11.05;;
46110;SDS011;31849;55.992;37.252;2023-09-19T05:32:30;13.63;;;10.25;;
46110;SDS011;31849;55.992;37.252;2023-09-19T05:37:35;15.90;;;10.87;;
46110;SDS011;31849;55.992;37.252;2023-09-19T05:42:39;13.68;;;11.13;;
46110;SDS011;31849;55.992;37.252;2023-09-19T05:47:43;15.13;;;11.37;;
46110;SDS011;31849;55.992;37.252;2023-09-19T05:57:58;15.55;;;11.13;;
46110;SDS011;31849;55.992;37.252;2023-09-19T06:03:01;14.43;;;11.00;;
46110;SDS011;31849;55.992;37.252;2023-09-19T06:08:06;13.05;;;11.15;;
46110;SDS011;31849;55.992;37.252;2023-09-19T06:13:11;13.65;;;11.18;;
46110;SDS011;31849;55.992;37.252;2023-09-19T06:18:14;12.02;;;10.73;;
46110;SDS011;31849;55.992;37.252;2023-09-19T06:23:23;18.65;;;11.98;;
46110;SDS011;31849;55.992;37.252;2023-09-19T06:28:28;18.17;;;12.48;;
46110;SDS011;31849;55.992;37.252;2023-09-19T06:33:31;15.35;;;12.40;;
46110;SDS011;31849;55.992;37.252;2023-09-19T06:38:36;16.33;;;11.80;;
46110;SDS011;31849;55.992;37.252;2023-09-19T06:43:41;16.63;;;13.27;;
46110;SDS011;31849;55.992;37.252;2023-09-19T06:48:45;18.55;;;13.00;;
46110;SDS011;31849;55.992;37.252;2023-09-19T06:53:50;18.42;;;14.23;;
46110;SDS011;31849;55.992;37.252;2023-09-19T06:58:56;19.30;;;13.38;;
46110;SDS011;31849;55.992;37.252;2023-09-19T07:09:05;15.40;;;12.52;;
46110;SDS011;31849;55.992;37.252;2023-09-19T07:14:10;15.93;;;13.20;;
46110;SDS011;31849;55.992;37.252;2023-09-19T07:19:14;16.83;;;13.40;;
46110;SDS011;31849;55.992;37.252;2023-09-19T07:24:19;16.38;;;14.25;;
46110;SDS011;31849;55.992;37.252;2023-09-19T07:29:25;22.35;;;16.52;;
46110;SDS011;31849;55.992;37.252;2023-09-19T07:34:29;23.23;;;17.73;;
46110;SDS011;31849;55.992;37.252;2023-09-19T07:39:34;26.33;;;18.38;;
46110;SDS011;31849;55.992;37.252;2023-09-19T07:44:37;23.80;;;19.20;;
46110;SDS011;31849;55.992;37.252;2023-09-19T07:49:41;22.55;;;17.88;;
46110;SDS011;31849;55.992;37.252;2023-09-19T07:54:46;23.48;;;17.67;;
46110;SDS011;31849;55.992;37.252;2023-09-19T07:59:51;29.08;;;19.65;;
46110;SDS011;31849;55.992;37.252;2023-09-19T08:04:55;28.35;;;19.35;;
46110;SDS011;31849;55.992;37.252;2023-09-19T08:10:02;29.48;;;18.67;;
46110;SDS011;31849;55.992;37.252;2023-09-19T08:15:06;24.05;;;19.13;;
46110;SDS011;31849;55.992;37.252;2023-09-19T08:20:11;25.67;;;19.10;;
46110;SDS011;31849;55.992;37.252;2023-09-19T08:25:20;27.77;;;19.27;;
46110;SDS011;31849;55.992;37.252;2023-09-19T08:30:25;27.80;;;18.67;;
46110;SDS011;31849;55.992;37.252;2023-09-19T08:35:29;31.38;;;19.88;;
46110;SDS011;31849;55.992;37.252;2023-09-19T08:40:34;28.83;;;19.97;;
46110;SDS011;31849;55.992;37.252;2023-09-19T08:45:41;31.35;;;19.40;;
46110;SDS011;31849;55.992;37.252;2023-09-19T08:50:48;28.07;;;19.40;;
46110;SDS011;31849;55.992;37.252;2023-09-19T08:55:54;34.80;;;19.40;;
46110;SDS011;31849;55.992;37.252;2023-09-19T09:00:59;27.90;;;18.63;;
46110;SDS011;31849;55.992;37.252;2023-09-19T09:06:04;24.95;;;18.95;;
46110;SDS011;31849;55.992;37.252;2023-09-19T09:11:11;29.67;;;18.33;;
46110;SDS011;31849;55.992;37.252;2023-09-19T09:16:16;26.25;;;18.90;;
46110;SDS011;31849;55.992;37.252;2023-09-19T09:21:21;33.08;;;19.73;;
46110;SDS011;31849;55.992;37.252;2023-09-19T09:26:44;30.53;;;18.50;;
46110;SDS011;31849;55.992;37.252;2023-09-19T09:31:49;25.70;;;18.50;;
46110;SDS011;31849;55.992;37.252;2023-09-19T09:36:53;27.98;;;19.40;;
46110;SDS011;31849;55.992;37.252;2023-09-19T09:41:58;34.93;;;19.90;;
46110;SDS011;31849;55.992;37.252;2023-09-19T09:47:08;26.13;;;17.52;;
46110;SDS011;31849;55.992;37.252;2023-09-19T09:52:29;28.63;;;18.50;;
46110;SDS011;31849;55.992;37.252;2023-09-19T09:57:35;28.38;;;19.08;;
46110;SDS011;31849;55.992;37.252;2023-09-19T10:02:38;30.67;;;18.08;;
46110;SDS011;31849;55.992;37.252;2023-09-19T10:07:43;33.75;;;18.88;;
46110;SDS011;31849;55.992;37.252;2023-09-19T10:12:53;28.10;;;18.80;;
46110;SDS011;31849;55.992;37.252;2023-09-19T10:18:04;28.27;;;19.67;;
46110;SDS011;31849;55.992;37.252;2023-09-19T10:23:10;26.02;;;19.30;;
46110;SDS011;31849;55.992;37.252;2023-09-19T10:28:17;26.70;;;18.75;;
46110;SDS011;31849;55.992;37.252;2023-09-19T10:33:24;25.77;;;19.23;;
46110;SDS011;31849;55.992;37.252;2023-09-19T10:38:28;27.02;;;21.10;;
46110;SDS011;31849;55.992;37.252;2023-09-19T10:43:36;32.42;;;21.33;;
46110;SDS011;31849;55.992;37.252;2023-09-19T10:48:46;28.40;;;18.73;;
46110;SDS011;31849;55.992;37.252;2023-09-19T10:53:52;28.23;;;19.45;;
46110;SDS011;31849;55.992;37.252;2023-09-19T10:59:07;28.38;;;19.58;;
46110;SDS011;31849;55.992;37.252;2023-09-19T11:04:23;27.15;;;19.52;;
46110;SDS011;31849;55.992;37.252;2023-09-19T11:09:45;28.73;;;19.42;;
46110;SDS011;31849;55.992;37.252;2023-09-19T11:14:51;32.30;;;20.55;;
46110;SDS011;31849;55.992;37.252;2023-09-19T11:25:43;28.45;;;18.75;;
46110;SDS011;31849;55.992;37.252;2023-09-19T11:30:51;27.08;;;19.30;;
46110;SDS011;31849;55.992;37.252;2023-09-19T11:35:59;50.10;;;21.88;;
46110;SDS011;31849;55.992;37.252;2023-09-19T11:51:56;25.33;;;19.23;;
46110;SDS011;31849;55.992;37.252;2023-09-19T11:57:03;29.63;;;19.45;;
46110;SDS011;31849;55.992;37.252;2023-09-19T12:02:09;29.85;;;19.02;;
46110;SDS011;31849;55.992;37.252;2023-09-19T12:07:31;32.60;;;19.48;;
46110;SDS011;31849;55.992;37.252;2023-09-19T12:12:49;27.67;;;17.63;;
46110;SDS011;31849;55.992;37.252;2023-09-19T12:17:55;32.80;;;18.02;;
46110;SDS011;31849;55.992;37.252;2023-09-19T12:22:59;31.00;;;19.05;;
46110;SDS011;31849;55.992;37.252;2023-09-19T12:28:03;26.30;;;18.25;;
46110;SDS011;31849;55.992;37.252;2023-09-19T12:33:15;29.55;;;18.40;;
46110;SDS011;31849;55.992;37.252;2023-09-19T12:38:25;29.08;;;18.85;;
46110;SDS011;31849;55.992;37.252;2023-09-19T12:43:30;28.63;;;17.70;;
46110;SDS011;31849;55.992;37.252;2023-09-19T12:48:37;26.65;;;17.75;;
46110;SDS011;31849;55.992;37.252;2023-09-19T12:53:46;27.63;;;17.52;;
46110;SDS011;31849;55.992;37.252;2023-09-19T12:58:59;28.05;;;16.33;;
46110;SDS011;31849;55.992;37.252;2023-09-19T13:04:13;25.95;;;16.40;;
46110;SDS011;31849;55.992;37.252;2023-09-19T13:09:21;24.02;;;15.65;;
46110;SDS011;31849;55.992;37.252;2023-09-19T13:14:33;24.90;;;14.55;;
46110;SDS011;31849;55.992;37.252;2023-09-19T13:19:41;22.30;;;14.82;;
46110;SDS011;31849;55.992;37.252;2023-09-19T13:24:51;25.40;;;15.23;;
46110;SDS011;31849;55.992;37.252;2023-09-19T13:29:54;21.98;;;14.88;;
46110;SDS011;31849;55.992;37.252;2023-09-19T13:34:59;23.20;;;14.27;;
46110;SDS011;31849;55.992;37.252;2023-09-19T13:40:05;23.48;;;13.88;;
46110;SDS011;31849;55.992;37.252;2023-09-19T13:45:09;21.30;;;13.32;;
46110;SDS011;31849;55.992;37.252;2023-09-19T13:50:15;23.02;;;14.52;;
46110;SDS011;31849;55.992;37.252;2023-09-19T13:55:25;20.95;;;14.25;;
46110;SDS011;31849;55.992;37.252;2023-09-19T14:00:29;21.05;;;13.38;;
46110;SDS011;31849;55.992;37.252;2023-09-19T14:05:37;24.05;;;13.02;;
46110;SDS011;31849;55.992;37.252;2023-09-19T14:10:41;19.50;;;12.60;;
46110;SDS011;31849;55.992;37.252;2023-09-19T14:15:44;21.60;;;12.88;;
46110;SDS011;31849;55.992;37.252;2023-09-19T14:20:49;21.80;;;12.80;;
46110;SDS011;31849;55.992;37.252;2023-09-19T14:25:54;20.42;;;13.43;;
46110;SDS011;31849;55.992;37.252;2023-09-19T14:30:58;20.60;;;12.60;;
46110;SDS011;31849;55.992;37.252;2023-09-19T14:36:08;22.92;;;12.40;;
46110;SDS011;31849;55.992;37.252;2023-09-19T14:41:13;20.00;;;12.38;;
46110;SDS011;31849;55.992;37.252;2023-09-19T14:46:16;17.92;;;11.63;;
46110;SDS011;31849;55.992;37.252;2023-09-19T14:51:22;21.63;;;12.55;;
46110;SDS011;31849;55.992;37.252;2023-09-19T14:56:26;19.65;;;12.02;;
46110;SDS011;31849;55.992;37.252;2023-09-19T15:01:31;25.70;;;11.68;;
46110;SDS011;31849;55.992;37.252;2023-09-19T15:06:36;16.95;;;10.70;;
46110;SDS011;31849;55.992;37.252;2023-09-19T15:11:40;18.63;;;10.80;;
46110;SDS011;31849;55.992;37.252;2023-09-19T15:16:44;20.63;;;11.73;;
46110;SDS011;31849;55.992;37.252;2023-09-19T15:21:49;19.38;;;11.25;;
46110;SDS011;31849;55.992;37.252;2023-09-19T15:26:52;23.45;;;13.10;;
46110;SDS011;31849;55.992;37.252;2023-09-19T15:31:57;24.60;;;14.40;;
46110;SDS011;31849;55.992;37.252;2023-09-19T15:37:05;19.90;;;11.95;;
46110;SDS011;31849;55.992;37.252;2023-09-19T15:42:09;17.00;;;11.75;;
46110;SDS011;31849;55.992;37.252;2023-09-19T15:47:12;23.05;;;12.80;;
46110;SDS011;31849;55.992;37.252;2023-09-19T15:52:18;24.23;;;15.20;;
46110;SDS011;31849;55.992;37.252;2023-09-19T15:57:22;26.02;;;15.90;;
46110;SDS011;31849;55.992;37.252;2023-09-19T16:02:26;24.17;;;14.43;;
46110;SDS011;31849;55.992;37.252;2023-09-19T16:12:35;23.33;;;14.77;;
46110;SDS011;31849;55.992;37.252;2023-09-19T16:17:39;20.25;;;12.98;;
46110;SDS011;31849;55.992;37.252;2023-09-19T16:22:46;18.73;;;13.80;;
46110;SDS011;31849;55.992;37.252;2023-09-19T16:27:50;18.88;;;12.95;;
46110;SDS011;31849;55.992;37.252;2023-09-19T16:32:53;21.87;;;13.37;;
46110;SDS011;31849;55.992;37.252;2023-09-19T16:37:58;19.42;;;14.55;;
46110;SDS011;31849;55.992;37.252;2023-09-19T16:43:02;20.00;;;12.60;;
46110;SDS011;31849;55.992;37.252;2023-09-19T16:48:06;19.00;;;14.80;;
46110;SDS011;31849;55.992;37.252;2023-09-19T16:53:11;19.93;;;14.97;;
46110;SDS011;31849;55.992;37.252;2023-09-19T16:58:14;26.38;;;17.13;;
46110;SDS011;31849;55.992;37.252;2023-09-19T17:03:19;24.10;;;15.43;;
46110;SDS011;31849;55.992;37.252;2023-09-19T17:08:24;25.23;;;15.60;;
46110;SDS011;31849;55.992;37.252;2023-09-19T17:13:30;27.75;;;17.75;;
46110;SDS011;31849;55.992;37.252;2023-09-19T17:18:34;24.03;;;14.83;;
46110;SDS011;31849;55.992;37.252;2023-09-19T17:23:39;21.77;;;14.65;;
46110;SDS011;31849;55.992;37.252;2023-09-19T17:28:43;25.73;;;14.07;;
46110;SDS011;31849;55.992;37.252;2023-09-19T17:33:48;31.88;;;13.20;;
46110;SDS011;31849;55.992;37.252;2023-09-19T17:38:55;19.67;;;11.98;;
46110;SDS011;31849;55.992;37.252;2023-09-19T17:44:00;22.23;;;13.55;;
46110;SDS011;31849;55.992;37.252;2023-09-19T17:49:03;20.40;;;13.50;;
46110;SDS011;31849;55.992;37.252;2023-09-19T17:54:09;22.42;;;13.38;;
46110;SDS011;31849;55.992;37.252;2023-09-19T17:59:13;21.85;;;12.95;;
46110;SDS011;31849;55.992;37.252;2023-09-19T18:04:16;19.43;;;12.33;;
46110;SDS011;31849;55.992;37.252;2023-09-19T18:09:22;18.65;;;11.77;;
46110;SDS011;31849;55.992;37.252;2023-09-19T18:14:26;17.25;;;11.82;;
46110;SDS011;31849;55.992;37.252;2023-09-19T18:19:34;18.85;;;11.80;;
46110;SDS011;31849;55.992;37.252;2023-09-19T18:24:39;17.35;;;11.38;;
46110;SDS011;31849;55.992;37.252;2023-09-19T18:29:43;16.00;;;11.75;;
46110;SDS011;31849;55.992;37.252;2023-09-19T18:34:48;18.38;;;11.27;;
46110;SDS011;31849;55.992;37.252;2023-09-19T18:39:53;13.90;;;11.00;;
46110;SDS011;31849;55.992;37.252;2023-09-19T18:44:57;15.02;;;11.25;;
46110;SDS011;31849;55.992;37.252;2023-09-19T18:50:01;16.52;;;12.30;;
46110;SDS011;31849;55.992;37.252;2023-09-19T18:55:08;16.30;;;12.18;;
46110;SDS011;31849;55.992;37.252;2023-09-19T19:00:14;18.35;;;11.98;;
46110;SDS011;31849;55.992;37.252;2023-09-19T19:05:19;21.98;;;11.75;;
46110;SDS011;31849;55.992;37.252;2023-09-19T19:10:25;20.13;;;11.82;;
46110;SDS011;31849;55.992;37.252;2023-09-19T19:15:28;17.98;;;12.50;;
46110;SDS011;31849;55.992;37.252;2023-09-19T19:20:33;20.27;;;11.98;;
46110;SDS011;31849;55.992;37.252;2023-09-19T19:25:45;15.83;;;11.77;;
46110;SDS011;31849;55.992;37.252;2023-09-19T19:30:50;19.63;;;12.87;;
46110;SDS011;31849;55.992;37.252;2023-09-19T19:36:02;18.60;;;12.60;;
46110;SDS011;31849;55.992;37.252;2023-09-19T19:41:09;17.13;;;12.27;;
46110;SDS011;31849;55.992;37.252;2023-09-19T19:46:12;19.00;;;12.20;;
46110;SDS011;31849;55.992;37.252;2023-09-19T19:51:16;17.30;;;12.77;;
46110;SDS011;31849;55.992;37.252;2023-09-19T19:56:21;16.38;;;13.00;;
46110;SDS011;31849;55.992;37.252;2023-09-19T20:01:25;17.65;;;12.63;;
46110;SDS011;31849;55.992;37.252;2023-09-19T20:06:29;14.90;;;12.13;;
46110;SDS011;31849;55.992;37.252;2023-09-19T20:11:34;15.80;;;12.53;;
46110;SDS011;31849;55.992;37.252;2023-09-19T20:16:40;13.70;;;11.60;;
46110;SDS011;31849;55.992;37.252;2023-09-19T20:21:45;14.48;;;11.68;;
46110;SDS011;31849;55.992;37.252;2023-09-19T20:26:50;14.97;;;12.97;;
46110;SDS011;31849;55.992;37.252;2023-09-19T20:31:56;16.20;;;11.68;;
46110;SDS011;31849;55.992;37.252;2023-09-19T20:37:01;14.95;;;11.70;;
46110;SDS011;31849;55.992;37.252;2023-09-19T20:42:06;14.80;;;12.60;;
46110;SDS011;31849;55.992;37.252;2023-09-19T20:47:10;14.90;;;11.90;;
46110;SDS011;31849;55.992;37.252;2023-09-19T20:52:14;16.42;;;12.73;;
46110;SDS011;31849;55.992;37.252;2023-09-19T20:57:19;16.33;;;12.80;;
46110;SDS011;31849;55.992;37.252;2023-09-19T21:02:22;16.20;;;12.85;;
46110;SDS011;31849;55.992;37.252;2023-09-19T21:07:26;20.77;;;13.13;;
46110;SDS011;31849;55.992;37.252;2023-09-19T21:22:45;14.07;;;10.85;;
46110;SDS011;31849;55.992;37.252;2023-09-19T21:27:50;15.50;;;11.37;;
46110;SDS011;31849;55.992;37.252;2023-09-19T21:32:53;13.55;;;11.45;;
46110;SDS011;31849;55.992;37.252;2023-09-19T21:37:57;15.88;;;12.20;;
46110;SDS011;31849;55.992;37.252;2023-09-19T21:43:02;16.55;;;10.88;;
46110;SDS011;31849;55.992;37.252;2023-09-19T21:48:08;12.68;;;11.18;;
46110;SDS011;31849;55.992;37.252;2023-09-19T21:53:13;14.85;;;11.07;;
46110;SDS011;31849;55.992;37.252;2023-09-19T21:58:18;15.23;;;11.40;;
46110;SDS011;31849;55.992;37.252;2023-09-19T22:03:21;15.57;;;11.05;;
46110;SDS011;31849;55.992;37.252;2023-09-19T22:08:27;14.73;;;10.85;;
46110;SDS011;31849;55.992;37.252;2023-09-19T22:13:32;14.65;;;11.27;;
46110;SDS011;31849;55.992;37.252;2023-09-19T22:18:35;14.63;;;11.70;;
46110;SDS011;31849;55.992;37.252;2023-09-19T22:23:40;15.00;;;11.45;;
46110;SDS011;31849;55.992;37.252;2023-09-19T22:28:46;14.93;;;11.15;;
46110;SDS011;31849;55.992;37.252;2023-09-19T22:33:53;13.63;;;10.82;;
46110;SDS011;31849;55.992;37.252;2023-09-19T22:38:57;13.52;;;10.73;;
46110;SDS011;31849;55.992;37.252;2023-09-19T22:44:04;14.82;;;11.25;;
46110;SDS011;31849;55.992;37.252;2023-09-19T22:49:09;14.52;;;10.57;;
46110;SDS011;31849;55.992;37.252;2023-09-19T22:54:19;17.17;;;11.10;;
46110;SDS011;31849;55.992;37.252;2023-09-19T22:59:30;14.88;;;11.02;;
46110;SDS011;31849;55.992;37.252;2023-09-19T23:04:34;14.05;;;10.65;;
46110;SDS011;31849;55.992;37.252;2023-09-19T23:09:39;15.05;;;10.38;;
46110;SDS011;31849;55.992;37.252;2023-09-19T23:14:46;13.65;;;10.90;;
46110;SDS011;31849;55.992;37.252;2023-09-19T23:19:49;14.75;;;11.07;;
46110;SDS011;31849;55.992;37.252;2023-09-19T23:24:57;14.57;;;10.73;;
46110;SDS011;31849;55.992;37.252;2023-09-19T23:30:15;18.40;;;11.40;;
46110;SDS011;31849;55.992;37.252;2023-09-19T23:35:20;13.85;;;10.43;;
46110;SDS011;31849;55.992;37.252;2023-09-19T23:45:31;13.20;;;10.27;;
46110;SDS011;31849;55.992;37.252;2023-09-19T23:50:38;14.55;;;11.00;;
46110;SDS011;31849;55.992;37.252;2023-09-19T23:55:44;15.10;;;10.82;;
